Time;durP1;ratioP1;P1;durP2;ratioP2;P2;SDS_P1;SDS_P2;PMS_P1;PMS_P2;Temp;Humidity;BMP_temperature;BMP_pressure;BME280_temperature;BME280_humidity;BME280_pressure;Samples;Min_cycle;Max_cycle;Signal;HPM_P1;HPM_P2
2023/08/21 00:01:46;;;;;;;;;;;;;;;15.31;100.00;102336.16;5017535;28;19929;-85
2023/08/21 00:04:32;;;;;;;;;;;;;;;15.30;100.00;102334.41;5003304;28;19960;-85
2023/08/21 00:07:20;;;;;;;;;;;;;;;15.29;100.00;102343.34;5003180;28;19932;-85
2023/08/21 00:10:07;;;;;;;;;;;;;;;15.28;100.00;102340.75;5001983;28;20465;-85
2023/08/21 00:12:52;;;;;;;;;;;;;;;15.24;100.00;102339.16;5017116;28;20626;-83
2023/08/21 00:15:38;;;;;;;;;;;;;;;15.23;100.00;102337.38;5017481;28;19938;-83
2023/08/21 00:18:24;;;;;;;;;;;;;;;15.22;100.00;102339.22;5002820;28;20438;-84
2023/08/21 00:21:10;;;;;;;;;;;;;;;15.26;100.00;102337.28;5012342;28;19928;-84
2023/08/21 00:23:55;;;;;;;;;;;;;;;15.25;100.00;102346.22;5017590;28;20569;-84
2023/08/21 00:26:41;;;;;;;;;;;;;;;15.23;100.00;102340.94;5002584;28;19925;-84
2023/08/21 00:29:27;;;;;;;;;;;;;;;15.22;100.00;102347.22;5017480;28;20015;-83
2023/08/21 00:32:13;;;;;;;;;;;;;;;15.21;100.00;102342.81;5004216;28;20024;-84
2023/08/21 00:34:58;;;;;;;;;;;;;;;15.19;100.00;102342.88;5019870;28;19924;-84
2023/08/21 00:37:44;;;;;;;;;;;;;;;15.17;100.00;102339.41;5021109;28;20028;-84
2023/08/21 00:40:30;;;;;;;;;;;;;;;15.16;100.00;102344.78;5005798;28;19943;-84
2023/08/21 00:43:19;;;;;;;;;;;;;;;15.13;100.00;102335.13;5006565;28;19927;-85
2023/08/21 00:46:05;;;;;;;;;;;;;;;15.13;100.00;102321.78;5006455;28;20037;-86
2023/08/21 00:48:50;;;;;;;;;;;;;;;15.14;100.00;102328.84;5021824;28;19924;-85
2023/08/21 00:51:36;;;;;;;;;;;;;;;15.13;100.00;102326.22;5005461;28;19921;-84
2023/08/21 00:54:21;;;;;;;;;;;;;;;15.12;100.00;102335.16;5021017;28;20226;-84
2023/08/21 00:57:07;;;;;;;;;;;;;;;15.11;100.00;102333.44;5006094;28;19920;-85
2023/08/21 00:59:56;;;;;;;;;;;;;;;15.10;100.00;102339.72;5005915;28;19951;-85
2023/08/21 01:02:43;;;;;;;;;;;;;;;15.09;100.00;102343.31;5006294;28;19925;-85
2023/08/21 01:05:29;;;;;;;;;;;;;;;15.09;100.00;102343.31;5007004;28;19929;-84
2023/08/21 01:08:21;;;;;;;;;;;;;;;15.07;100.00;102338.91;5003692;28;19925;-85
2023/08/21 01:11:27;;;;;;;;;;;;;;;15.05;100.00;102339.91;5006732;28;20194;-83
2023/08/21 01:14:12;;;;;;;;;;;;;;;15.04;100.00;102338.16;5005883;28;19968;-83
2023/08/21 01:17:01;;;;;;;;;;;;;;;15.02;100.00;102340.88;5004923;28;19925;-83
2023/08/21 01:19:48;;;;;;;;;;;;;;;15.00;100.00;102344.53;5005477;28;19925;-84
2023/08/21 01:22:38;;;;;;;;;;;;;;;14.99;100.00;102349.00;5005571;28;19925;-84
2023/08/21 01:25:24;;;;;;;;;;;;;;;15.00;100.00;102333.88;5005284;28;20284;-84
2023/08/21 01:28:09;;;;;;;;;;;;;;;14.98;100.00;102344.59;5020284;28;19925;-84
2023/08/21 01:30:59;;;;;;;;;;;;;;;14.95;100.00;102344.75;5021517;28;20518;-83
2023/08/21 01:33:46;;;;;;;;;;;;;;;14.92;100.00;102342.16;5006332;28;20570;-82
2023/08/21 01:36:31;;;;;;;;;;;;;;;14.90;100.00;102346.72;5004401;28;19935;-82
2023/08/21 01:39:17;;;;;;;;;;;;;;;14.90;100.00;102336.94;5005410;28;19928;-82
2023/08/21 01:42:03;;;;;;;;;;;;;;;14.89;100.00;102343.19;5021206;28;19940;-83
2023/08/21 01:44:48;;;;;;;;;;;;;;;14.88;100.00;102348.56;5005033;28;19951;-83
2023/08/21 01:47:34;;;;;;;;;;;;;;;14.87;100.00;102344.19;5005157;28;19925;-82
2023/08/21 01:50:20;;;;;;;;;;;;;;;14.84;100.00;102355.84;5004938;28;20020;-84
2023/08/21 01:53:05;;;;;;;;;;;;;;;14.83;100.00;102350.56;5004473;28;20372;-82
2023/08/21 01:55:51;;;;;;;;;;;;;;;14.82;100.00;102351.47;5020208;28;19973;-83
2023/08/21 01:58:37;;;;;;;;;;;;;;;14.80;100.00;102352.41;5019541;28;20395;-84
2023/08/21 02:01:25;;;;;;;;;;;;;;;14.78;100.00;102354.25;5020259;28;20002;-83
2023/08/21 02:04:11;;;;;;;;;;;;;;;14.77;100.00;102351.69;5019706;28;20018;-83
2023/08/21 02:06:57;;;;;;;;;;;;;;;14.78;100.00;102348.91;5005066;28;19932;-84
2023/08/21 02:09:43;;;;;;;;;;;;;;;14.79;100.00;102345.34;4998612;28;19925;-83
2023/08/21 02:12:28;;;;;;;;;;;;;;;14.84;100.00;102346.94;4999340;28;19984;-83
2023/08/21 02:15:14;;;;;;;;;;;;;;;14.88;100.00;102353.91;5000327;28;19967;-83
2023/08/21 02:17:59;;;;;;;;;;;;;;;14.90;100.00;102352.03;4999100;28;20016;-83
2023/08/21 02:20:47;;;;;;;;;;;;;;;14.89;100.00;102347.66;4999790;28;21627;-84
2023/08/21 02:23:32;;;;;;;;;;;;;;;14.86;100.00;102350.44;4996930;28;21533;-83
2023/08/21 02:26:19;;;;;;;;;;;;;;;14.79;100.00;102350.69;4997332;28;19921;-83
2023/08/21 02:29:05;;;;;;;;;;;;;;;14.77;100.00;102349.84;5008127;28;19930;-83
2023/08/21 02:31:51;;;;;;;;;;;;;;;14.73;100.00;102350.00;4998440;28;19932;-84
2023/08/21 02:34:36;;;;;;;;;;;;;;;14.71;100.00;102352.72;4984432;28;19964;-83
2023/08/21 02:37:22;;;;;;;;;;;;;;;14.68;100.00;102347.53;4998737;28;19991;-83
2023/08/21 02:40:08;;;;;;;;;;;;;;;14.64;100.00;102351.22;4998418;28;20059;-82
2023/08/21 02:42:54;;;;;;;;;;;;;;;14.61;100.00;102346.03;4998631;28;19925;-83
2023/08/21 02:45:39;;;;;;;;;;;;;;;14.62;100.00;102347.78;4998736;28;21621;-84
2023/08/21 02:48:25;;;;;;;;;;;;;;;14.61;100.00;102341.56;4998300;28;20546;-83
2023/08/21 02:51:11;;;;;;;;;;;;;;;14.59;100.00;102353.22;5000222;28;19939;-83
2023/08/21 02:53:56;;;;;;;;;;;;;;;14.51;100.00;102351.69;4999490;28;20987;-83
2023/08/21 02:56:42;;;;;;;;;;;;;;;14.41;100.00;102350.31;4998648;28;19925;-83
2023/08/21 02:59:27;;;;;;;;;;;;;;;14.31;100.00;102341.81;4998462;28;19925;-84
2023/08/21 03:02:13;;;;;;;;;;;;;;;14.31;100.00;102340.94;4999090;28;20388;-83
2023/08/21 03:04:59;;;;;;;;;;;;;;;14.28;100.00;102341.06;4997963;28;19928;-84
2023/08/21 03:07:44;;;;;;;;;;;;;;;14.26;100.00;102346.44;4996938;28;19925;-83
2023/08/21 03:10:33;;;;;;;;;;;;;;;14.25;100.00;102344.69;5017805;28;19929;-83
2023/08/21 03:13:19;;;;;;;;;;;;;;;14.20;100.00;102342.22;5018047;28;19921;-84
2023/08/21 03:16:04;;;;;;;;;;;;;;;14.17;100.00;102342.31;5018255;28;20406;-83
2023/08/21 03:18:54;;;;;;;;;;;;;;;14.12;100.00;102338.97;5017895;28;19979;-84
2023/08/21 03:21:39;;;;;;;;;;;;;;;14.07;100.00;102338.25;5001525;28;19982;-83
2023/08/21 03:24:25;;;;;;;;;;;;;;;14.03;100.00;102334.84;4995859;28;19925;-85
2023/08/21 03:27:11;;;;;;;;;;;;;;;14.01;100.00;102328.72;5001691;28;19983;-83
2023/08/21 03:30:00;;;;;;;;;;;;;;;14.00;100.00;102332.28;5015652;28;22319;-84
2023/08/21 03:32:46;;;;;;;;;;;;;;;14.00;100.00;102324.28;5002003;28;19924;-84
2023/08/21 03:35:31;;;;;;;;;;;;;;;13.97;100.00;102333.28;5017396;28;19974;-83
2023/08/21 03:38:17;;;;;;;;;;;;;;;13.95;100.00;102327.13;5016094;28;19928;-83
2023/08/21 03:41:05;;;;;;;;;;;;;;;13.95;100.00;102332.44;5017369;28;20337;-83
2023/08/21 03:43:51;;;;;;;;;;;;;;;13.94;100.00;102321.88;5001635;28;19944;-83
2023/08/21 03:46:37;;;;;;;;;;;;;;;13.96;100.00;102323.53;5001963;28;21190;-83
2023/08/21 03:49:22;;;;;;;;;;;;;;;13.98;100.00;102319.03;5016921;28;19972;-83
2023/08/21 03:52:08;;;;;;;;;;;;;;;13.97;100.00;102317.31;5017721;28;19952;-83
2023/08/21 03:54:54;;;;;;;;;;;;;;;13.96;100.00;102318.22;5017166;28;19929;-83
2023/08/21 03:57:39;;;;;;;;;;;;;;;13.96;100.00;102315.53;5017657;28;19932;-83
2023/08/21 04:00:25;;;;;;;;;;;;;;;13.96;100.00;102310.22;5001257;28;19978;-83
2023/08/21 04:03:10;;;;;;;;;;;;;;;13.98;100.00;102311.06;5017393;28;21699;-83
2023/08/21 04:05:56;;;;;;;;;;;;;;;13.99;100.00;102315.44;5016239;28;19924;-84
2023/08/21 04:08:42;;;;;;;;;;;;;;;14.00;100.00;102316.31;5017695;28;19939;-82
2023/08/21 04:11:28;;;;;;;;;;;;;;;13.99;100.00;102323.44;5017270;28;20271;-83
2023/08/21 04:14:14;;;;;;;;;;;;;;;13.99;100.00;102322.56;5018903;28;19929;-83
2023/08/21 04:16:59;;;;;;;;;;;;;;;13.97;100.00;102322.63;5017826;28;20379;-82
2023/08/21 04:19:45;;;;;;;;;;;;;;;13.97;100.00;102322.63;5002408;28;20015;-82
2023/08/21 04:22:31;;;;;;;;;;;;;;;13.97;100.00;102325.28;5017492;28;19925;-83
2023/08/21 04:25:16;;;;;;;;;;;;;;;13.98;100.00;102331.47;5016559;28;19921;-83
2023/08/21 04:28:02;;;;;;;;;;;;;;;13.98;100.00;102326.16;5017689;28;20376;-83
2023/08/21 04:30:48;;;;;;;;;;;;;;;13.98;100.00;102334.13;5003463;28;19921;-83
2023/08/21 04:33:33;;;;;;;;;;;;;;;13.98;100.00;102332.34;5017677;28;19925;-83
2023/08/21 04:36:19;;;;;;;;;;;;;;;14.02;100.00;102332.22;4988435;28;19932;-83
2023/08/21 04:39:05;;;;;;;;;;;;;;;14.02;100.00;102333.09;5016961;28;19925;-83
2023/08/21 04:41:51;;;;;;;;;;;;;;;14.03;100.00;102331.31;5006358;28;20332;-83
2023/08/21 04:44:37;;;;;;;;;;;;;;;14.02;100.00;102327.78;5001560;28;19975;-83
2023/08/21 04:47:28;;;;;;;;;;;;;;;14.02;100.00;102329.56;5017227;28;20346;-82
2023/08/21 04:50:15;;;;;;;;;;;;;;;14.03;100.00;102333.97;5003988;28;19990;-82
2023/08/21 04:53:01;;;;;;;;;;;;;;;14.04;100.00;102320.59;5002218;28;20020;-83
2023/08/21 04:55:46;;;;;;;;;;;;;;;14.03;100.00;102331.31;4989224;28;20075;-83
2023/08/21 04:58:32;;;;;;;;;;;;;;;14.04;100.00;102325.03;5016706;28;19929;-83
2023/08/21 05:01:18;;;;;;;;;;;;;;;14.06;100.00;102329.38;5018446;28;19967;-82
2023/08/21 05:04:03;;;;;;;;;;;;;;;14.10;100.00;102332.81;5017608;28;19932;-82
2023/08/21 05:06:49;;;;;;;;;;;;;;;14.15;100.00;102332.66;5016798;28;20283;-83
2023/08/21 05:09:35;;;;;;;;;;;;;;;14.18;100.00;102332.53;5008140;28;19956;-82
2023/08/21 05:12:20;;;;;;;;;;;;;;;14.21;100.00;102335.06;4995355;28;20316;-83
2023/08/21 05:15:06;;;;;;;;;;;;;;;14.23;100.00;102331.44;4995287;28;19925;-84
2023/08/21 05:17:52;;;;;;;;;;;;;;;14.25;100.00;102342.91;4981709;28;20536;-83
2023/08/21 05:20:41;;;;;;;;;;;;;;;14.26;100.00;102330.44;4998317;28;20525;-83
2023/08/21 05:23:26;;;;;;;;;;;;;;;14.30;100.00;102332.09;4971118;28;19928;-83
2023/08/21 05:26:12;;;;;;;;;;;;;;;14.36;100.00;102338.97;4984241;28;19979;-83
2023/08/21 05:28:58;;;;;;;;;;;;;;;14.40;100.00;102343.25;4998858;28;20041;-83
2023/08/21 05:31:44;;;;;;;;;;;;;;;14.45;100.00;102346.63;4984317;28;19937;-83
2023/08/21 05:34:29;;;;;;;;;;;;;;;14.51;100.00;102345.53;4998784;28;20384;-83
2023/08/21 05:37:15;;;;;;;;;;;;;;;14.58;100.00;102346.13;4983370;28;19925;-83
2023/08/21 05:40:00;;;;;;;;;;;;;;;14.64;100.00;102345.91;4998404;28;19925;-84
2023/08/21 05:42:46;;;;;;;;;;;;;;;14.71;100.00;102354.53;4998296;28;19929;-84
2023/08/21 05:45:34;;;;;;;;;;;;;;;14.75;100.00;102351.72;4998874;28;20565;-84
2023/08/21 05:48:20;;;;;;;;;;;;;;;14.83;100.00;102350.56;4973902;28;19929;-83
2023/08/21 05:51:05;;;;;;;;;;;;;;;14.86;100.00;102355.78;4983841;28;19928;-83
2023/08/21 05:53:51;;;;;;;;;;;;;;;14.92;100.00;102352.84;4984156;28;20323;-84
2023/08/21 05:56:37;;;;;;;;;;;;;;;14.96;100.00;102357.13;4984239;28;19925;-83
2023/08/21 05:59:32;;;;;;;;;;;;;;;15.02;100.00;102358.69;4997234;28;19975;-82
2023/08/21 06:02:18;;;;;;;;;;;;;;;15.09;100.00;102356.66;4983297;28;20468;-83
2023/08/21 06:05:03;;;;;;;;;;;;;;;15.16;100.00;102364.31;4984192;28;20027;-83
2023/08/21 06:07:49;;;;;;;;;;;;;;;15.25;100.00;102362.22;4985733;28;19925;-84
2023/08/21 06:10:35;;;;;;;;;;;;;;;15.34;100.00;102356.50;5014520;28;20474;-84
2023/08/21 06:13:21;;;;;;;;;;;;;;;15.44;100.00;102356.97;5004732;28;20368;-84
2023/08/21 06:16:06;;;;;;;;;;;;;;;15.54;100.00;102362.78;5020169;28;20351;-84
2023/08/21 06:18:52;;;;;;;;;;;;;;;15.70;100.00;102368.34;5021895;28;19929;-82
2023/08/21 06:21:38;;;;;;;;;;;;;;;15.93;100.00;102364.72;5022995;28;20414;-82
2023/08/21 06:24:23;;;;;;;;;;;;;;;16.19;100.00;102370.72;5019565;28;19921;-82
2023/08/21 06:27:12;;;;;;;;;;;;;;;16.36;100.00;102361.91;5005361;28;20387;-82
2023/08/21 06:29:58;;;;;;;;;;;;;;;16.56;100.00;102368.13;5019079;28;19964;-82
2023/08/21 06:32:44;;;;;;;;;;;;;;;16.73;100.00;102370.03;5005060;28;19935;-82
2023/08/21 06:35:29;;;;;;;;;;;;;;;16.91;100.00;102373.63;5019234;28;19932;-82
2023/08/21 06:38:15;;;;;;;;;;;;;;;17.10;100.00;102367.38;5018719;28;19925;-82
2023/08/21 06:41:00;;;;;;;;;;;;;;;17.28;100.00;102367.44;5003909;28;19925;-83
2023/08/21 06:43:46;;;;;;;;;;;;;;;17.48;100.00;102359.25;5019348;28;19956;-81
2023/08/21 06:46:32;;;;;;;;;;;;;;;17.64;100.00;102362.03;5018823;28;19925;-81
2023/08/21 06:49:17;;;;;;;;;;;;;;;17.76;100.00;102362.34;5019031;28;19933;-82
2023/08/21 06:52:03;;;;;;;;;;;;;;;17.97;100.00;102363.00;5018259;28;20579;-82
2023/08/21 06:54:49;;;;;;;;;;;;;;;18.05;100.00;102359.97;5018777;28;20062;-83
2023/08/21 06:57:37;;;;;;;;;;;;;;;18.11;100.00;102365.00;5002749;28;19932;-82
2023/08/21 07:00:22;;;;;;;;;;;;;;;18.30;100.00;102359.50;5003373;28;19929;-81
2023/08/21 07:03:08;;;;;;;;;;;;;;;18.46;100.00;102354.16;5016592;28;20364;-82
2023/08/21 07:05:57;;;;;;;;;;;;;;;18.56;100.00;102357.22;4988534;28;19952;-82
2023/08/21 07:08:43;;;;;;;;;;;;;;;18.70;100.00;102350.22;5003039;28;19925;-81
2023/08/21 07:11:28;;;;;;;;;;;;;;;18.89;100.00;102362.59;4977702;28;19925;-81
2023/08/21 07:14:14;;;;;;;;;;;;;;;19.07;100.00;102358.84;4997724;28;19925;-82
2023/08/21 07:17:00;;;;;;;;;;;;;;;19.17;100.00;102359.19;4997305;28;19933;-82
2023/08/21 07:19:45;;;;;;;;;;;;;;;19.33;100.00;102364.53;4998326;28;19933;-82
2023/08/21 07:22:31;;;;;;;;;;;;;;;19.48;100.00;102353.84;4984258;28;19921;-82
2023/08/21 07:25:17;;;;;;;;;;;;;;;19.63;100.00;102355.63;4997999;28;19937;-82
2023/08/21 07:28:03;;;;;;;;;;;;;;;19.72;100.00;102359.53;4983745;28;19932;-82
2023/08/21 07:30:54;;;;;;;;;;;;;;;19.77;100.00;102367.34;4998452;28;20000;-82
2023/08/21 07:33:39;;;;;;;;;;;;;;;19.84;100.00;102357.97;4996492;28;19925;-81
2023/08/21 07:36:25;;;;;;;;;;;;;;;19.92;100.00;102366.41;4983740;28;19931;-82
2023/08/21 07:39:14;;;;;;;;;;;;;;;20.04;100.00;102359.44;4984612;28;19925;-82
2023/08/21 07:41:59;;;;;;;;;;;;;;;20.19;100.00;102368.38;4997319;28;19929;-82
2023/08/21 07:44:46;;;;;;;;;;;;;;;20.37;100.00;102361.94;4997638;28;20260;-82
2023/08/21 07:47:32;;;;;;;;;;;;;;;20.51;100.00;102369.09;4997446;28;19936;-82
2023/08/21 07:50:18;;;;;;;;;;;;;;;20.58;100.00;102363.25;4970121;28;19999;-82
2023/08/21 07:53:04;;;;;;;;;;;;;;;20.55;100.00;102367.97;4983290;28;20009;-82
2023/08/21 07:55:49;;;;;;;;;;;;;;;20.70;100.00;102366.13;4996893;28;19933;-82
2023/08/21 07:58:35;;;;;;;;;;;;;;;20.84;100.00;102363.41;4997012;28;19935;-83
2023/08/21 08:01:21;;;;;;;;;;;;;;;20.96;100.00;102364.44;4997081;28;19972;-81
2023/08/21 08:04:06;;;;;;;;;;;;;;;21.08;100.00;102369.97;4970634;28;19921;-82
2023/08/21 08:06:52;;;;;;;;;;;;;;;21.24;100.00;102362.59;4997310;28;19921;-82
2023/08/21 08:09:38;;;;;;;;;;;;;;;21.44;100.00;102372.03;4996462;28;19929;-83
2023/08/21 08:12:24;;;;;;;;;;;;;;;21.64;100.00;102369.81;4996226;28;20533;-82
2023/08/21 08:15:10;;;;;;;;;;;;;;;21.73;100.00;102373.72;4997277;28;19929;-82
2023/08/21 08:17:57;;;;;;;;;;;;;;;21.81;100.00;102374.06;4996981;28;19921;-83
2023/08/21 08:20:42;;;;;;;;;;;;;;;22.05;100.00;102375.16;4979688;28;19939;-83
2023/08/21 08:23:28;;;;;;;;;;;;;;;22.26;100.00;102367.34;4997469;28;19925;-82
2023/08/21 08:26:14;;;;;;;;;;;;;;;22.44;100.00;102375.94;5009442;28;20035;-82
2023/08/21 08:28:59;;;;;;;;;;;;;;;22.56;100.00;102374.25;4997281;28;20000;-83
2023/08/21 08:31:45;;;;;;;;;;;;;;;22.72;100.00;102378.50;4998213;28;20351;-83
2023/08/21 08:34:33;;;;;;;;;;;;;;;22.87;100.00;102377.38;4997913;28;20716;-83
2023/08/21 08:37:19;;;;;;;;;;;;;;;22.99;100.00;102366.63;4997241;28;19929;-83
2023/08/21 08:40:05;;;;;;;;;;;;;;;23.12;100.00;102380.06;4996987;28;19925;-83
2023/08/21 08:42:51;;;;;;;;;;;;;;;23.26;100.00;102368.25;4991256;28;20387;-83
2023/08/21 08:45:36;;;;;;;;;;;;;;;23.38;100.00;102370.03;4997296;28;19928;-83
2023/08/21 08:48:22;;;;;;;;;;;;;;;23.50;100.00;102370.06;5009469;28;19930;-84
2023/08/21 08:51:08;;;;;;;;;;;;;;;23.49;100.00;102371.03;4995467;28;19922;-82
2023/08/21 08:53:53;;;;;;;;;;;;;;;23.50;100.00;102380.88;4981352;28;19925;-83
2023/08/21 08:56:42;;;;;;;;;;;;;;;23.56;100.00;102377.69;5001085;28;19925;-84
2023/08/21 08:59:31;;;;;;;;;;;;;;;23.63;100.00;102373.53;5001869;28;20137;-84
2023/08/21 09:02:17;;;;;;;;;;;;;;;23.74;100.00;102376.28;4997363;28;19960;-83
2023/08/21 09:05:04;;;;;;;;;;;;;;;23.85;100.00;102372.72;4996419;28;19931;-85
2023/08/21 09:08:03;;;;;;;;;;;;;;;24.04;100.00;102365.00;4999832;28;20127;-85
2023/08/21 09:10:48;;;;;;;;;;;;;;;24.05;100.00;102361.31;5015274;28;19921;-85
2023/08/21 09:13:34;;;;;;;;;;;;;;;24.07;100.00;102364.81;5006164;28;20052;-84
2023/08/21 09:16:21;;;;;;;;;;;;;;;24.13;100.00;102369.72;5004320;28;19925;-83
2023/08/21 09:19:07;;;;;;;;;;;;;;;24.26;100.00;102365.06;5006128;28;19932;-84
2023/08/21 09:21:52;;;;;;;;;;;;;;;24.37;100.00;102366.00;5006133;28;19968;-85
2023/08/21 09:24:38;;;;;;;;;;;;;;;24.47;100.00;102358.88;5005998;28;20357;-84
2023/08/21 09:27:24;;;;;;;;;;;;;;;24.56;100.00;102359.94;5005067;28;19930;-84
2023/08/21 09:30:12;;;;;;;;;;;;;;;24.72;100.00;102364.97;5006291;28;19931;-83
2023/08/21 09:33:00;;;;;;;;;;;;;;;24.86;100.00;102361.16;5005592;28;19931;-85
2023/08/21 09:35:46;;;;;;;;;;;;;;;24.87;100.00;102365.59;5020902;28;19925;-85
2023/08/21 09:38:33;;;;;;;;;;;;;;;24.87;100.00;102367.41;5004177;28;19928;-85
2023/08/21 09:41:20;;;;;;;;;;;;;;;24.96;100.00;102361.25;5005110;28;19920;-84
2023/08/21 09:44:05;;;;;;;;;;;;;;;25.04;100.00;102353.34;4994799;28;19920;-84
2023/08/21 09:46:51;;;;;;;;;;;;;;;25.16;100.00;102361.44;5020269;28;19928;-84
2023/08/21 09:49:38;;;;;;;;;;;;;;;25.24;100.00;102353.50;5020199;28;19936;-84
2023/08/21 09:52:24;;;;;;;;;;;;;;;25.32;100.00;102356.41;5005471;28;19935;-84
2023/08/21 09:55:10;;;;;;;;;;;;;;;25.35;97.77;102352.59;5004852;28;19965;-85
2023/08/21 09:58:00;;;;;;;;;;;;;;;25.37;99.44;102350.59;5005139;28;19963;-86
2023/08/21 10:00:47;;;;;;;;;;;;;;;25.36;99.17;102357.88;5004542;28;19931;-83
2023/08/21 10:03:33;;;;;;;;;;;;;;;25.43;100.00;102357.34;5005957;28;19925;-85
2023/08/21 10:06:18;;;;;;;;;;;;;;;25.48;99.87;102357.81;5007900;28;20001;-85
2023/08/21 10:09:04;;;;;;;;;;;;;;;25.49;98.94;102349.53;5004374;28;19951;-85
2023/08/21 10:11:50;;;;;;;;;;;;;;;25.47;95.23;102356.97;5019841;28;19921;-84
2023/08/21 10:14:35;;;;;;;;;;;;;;;25.43;95.69;102357.34;5004284;28;19921;-84
2023/08/21 10:17:21;;;;;;;;;;;;;;;25.46;96.64;102354.38;5015827;28;19929;-82
2023/08/21 10:20:07;;;;;;;;;;;;;;;25.48;93.00;102349.66;5001528;28;20642;-82
2023/08/21 10:22:54;;;;;;;;;;;;;;;25.42;91.98;102342.06;5017970;28;20150;-85
2023/08/21 10:25:41;;;;;;;;;;;;;;;25.39;93.74;102340.50;5002389;28;20303;-85
2023/08/21 10:28:43;;;;;;;;;;;;;;;25.42;95.31;102333.94;5019387;28;19925;-83
2023/08/21 10:31:34;;;;;;;;;;;;;;;25.33;91.56;102328.31;5004882;28;20940;-84
2023/08/21 10:34:20;;;;;;;;;;;;;;;25.27;94.62;102336.97;5017861;28;20354;-84
2023/08/21 10:37:06;;;;;;;;;;;;;;;25.26;88.85;102340.69;4999697;28;19925;-83
2023/08/21 10:39:56;;;;;;;;;;;;;;;25.26;93.60;102346.09;5019344;28;19925;-83
2023/08/21 10:42:42;;;;;;;;;;;;;;;25.25;89.15;102340.78;5000133;28;19936;-84
2023/08/21 10:45:30;;;;;;;;;;;;;;;25.19;92.84;102347.59;5003608;28;19925;-84
2023/08/21 10:48:16;;;;;;;;;;;;;;;25.19;96.08;102345.78;5004174;28;20013;-86
2023/08/21 10:51:03;;;;;;;;;;;;;;;25.11;91.72;102347.41;5017908;28;19935;-85
2023/08/21 10:53:49;;;;;;;;;;;;;;;25.04;85.37;102353.34;5003623;28;19927;-84
2023/08/21 10:56:35;;;;;;;;;;;;;;;25.01;90.09;102353.56;4990072;28;20652;-89
2023/08/21 10:59:20;;;;;;;;;;;;;;;24.99;87.01;102344.72;5019252;28;20004;-86
2023/08/21 11:02:06;;;;;;;;;;;;;;;24.95;92.77;102346.84;4989820;28;20051;-87
2023/08/21 11:04:52;;;;;;;;;;;;;;;25.03;92.44;102346.22;5017388;28;19940;-83
2023/08/21 11:07:38;;;;;;;;;;;;;;;25.09;91.37;102361.94;5018355;28;20875;-82
2023/08/21 11:10:24;;;;;;;;;;;;;;;25.13;91.57;102361.66;4997455;28;19921;-83
2023/08/21 11:13:10;;;;;;;;;;;;;;;25.19;88.39;102358.44;5016230;28;19924;-78
2023/08/21 11:16:00;;;;;;;;;;;;;;;25.25;86.27;102351.63;4999698;28;19924;-81
2023/08/21 11:18:45;;;;;;;;;;;;;;;25.17;84.58;102355.00;4995808;28;19983;-78
2023/08/21 11:21:31;;;;;;;;;;;;;;;25.11;85.82;102360.94;4998226;28;20659;-79
2023/08/21 11:24:19;;;;;;;;;;;;;;;25.11;82.66;102342.84;5014997;28;19920;-79
2023/08/21 11:27:05;;;;;;;;;;;;;;;25.16;88.39;102345.19;5014636;28;20059;-79
2023/08/21 11:29:51;;;;;;;;;;;;;;;25.28;88.63;102349.53;5000727;28;20059;-80
2023/08/21 11:32:37;;;;;;;;;;;;;;;25.28;84.09;102333.25;5001549;28;20364;-80
2023/08/21 11:35:22;;;;;;;;;;;;;;;25.28;84.39;102341.41;5016765;28;19925;-80
2023/08/21 11:38:16;;;;;;;;;;;;;;;25.34;81.94;102332.75;5001184;28;19925;-79
2023/08/21 11:41:05;;;;;;;;;;;;;;;25.42;81.85;102334.81;5016242;28;20375;-79
2023/08/21 11:43:50;;;;;;;;;;;;;;;25.49;84.96;102335.16;4988535;28;19924;-79
2023/08/21 11:46:36;;;;;;;;;;;;;;;25.55;84.23;102337.34;5015803;28;19935;-79
2023/08/21 11:49:24;;;;;;;;;;;;;;;25.58;86.06;102339.78;5002417;28;19952;-79
2023/08/21 11:52:10;;;;;;;;;;;;;;;25.60;78.65;102335.09;5017206;28;19931;-79
2023/08/21 11:54:58;;;;;;;;;;;;;;;25.58;79.41;102341.63;5016080;28;19928;-79
2023/08/21 11:57:48;;;;;;;;;;;;;;;25.50;77.11;102339.56;5002779;28;19978;-79
2023/08/21 12:00:34;;;;;;;;;;;;;;;25.30;78.73;102331.31;5015033;28;20008;-79
2023/08/21 12:03:19;;;;;;;;;;;;;;;25.09;80.66;102329.44;5017176;28;20019;-79
2023/08/21 12:06:06;;;;;;;;;;;;;;;24.83;77.80;102334.31;5000223;28;20044;-79
2023/08/21 12:08:51;;;;;;;;;;;;;;;24.61;79.81;102335.22;5015920;28;19952;-80
2023/08/21 12:11:39;;;;;;;;;;;;;;;24.45;80.25;102327.50;5016035;28;19992;-79
2023/08/21 12:14:27;;;;;;;;;;;;;;;24.24;79.94;102323.72;5014000;28;19925;-79
2023/08/21 12:17:13;;;;;;;;;;;;;;;24.13;83.93;102329.16;5016015;28;20304;-80
2023/08/21 12:19:58;;;;;;;;;;;;;;;24.17;85.47;102327.91;5011233;28;19987;-79
2023/08/21 12:22:44;;;;;;;;;;;;;;;24.16;80.70;102322.59;5013456;28;19964;-80
2023/08/21 12:25:31;;;;;;;;;;;;;;;24.19;83.67;102325.91;5017383;28;20007;-79
2023/08/21 12:28:17;;;;;;;;;;;;;;;24.28;80.59;102327.91;5000698;28;19966;-79
2023/08/21 12:31:06;;;;;;;;;;;;;;;24.46;82.57;102326.53;4988504;28;19921;-80
2023/08/21 12:33:51;;;;;;;;;;;;;;;24.66;80.23;102327.56;5001121;28;19992;-80
2023/08/21 12:36:37;;;;;;;;;;;;;;;24.85;81.80;102329.66;5013268;28;20651;-80
2023/08/21 12:39:23;;;;;;;;;;;;;;;25.00;81.85;102324.78;5000968;28;20803;-79
2023/08/21 12:42:08;;;;;;;;;;;;;;;25.08;78.54;102333.13;5015938;28;20290;-79
2023/08/21 12:44:54;;;;;;;;;;;;;;;25.04;77.59;102326.25;5016153;28;20640;-80
2023/08/21 12:47:40;;;;;;;;;;;;;;;24.97;83.72;102329.59;5004948;28;19925;-80
2023/08/21 12:50:26;;;;;;;;;;;;;;;24.83;82.81;102331.63;5016435;28;19987;-80
2023/08/21 12:53:12;;;;;;;;;;;;;;;24.72;81.78;102324.34;5001758;28;19936;-79
2023/08/21 12:55:57;;;;;;;;;;;;;;;24.60;81.90;102328.06;4989497;28;19925;-78
2023/08/21 12:58:46;;;;;;;;;;;;;;;24.47;81.80;102333.66;5016168;28;19921;-79
2023/08/21 13:01:34;;;;;;;;;;;;;;;24.35;82.19;102322.00;5000457;28;20481;-80
2023/08/21 13:04:19;;;;;;;;;;;;;;;24.19;80.10;102314.25;5016125;28;19925;-80
2023/08/21 13:07:06;;;;;;;;;;;;;;;24.11;83.94;102320.28;4999555;28;20360;-77
2023/08/21 13:09:52;;;;;;;;;;;;;;;24.03;86.42;102320.00;5010034;28;19925;-76
2023/08/21 13:12:37;;;;;;;;;;;;;;;23.95;89.47;102316.06;4998978;28;20020;-77
2023/08/21 13:15:23;;;;;;;;;;;;;;;23.85;90.12;102318.66;4996378;28;20497;-77
2023/08/21 13:18:13;;;;;;;;;;;;;;;23.80;90.19;102317.31;5001632;28;19932;-77
2023/08/21 13:21:01;;;;;;;;;;;;;;;23.78;90.78;102313.84;4999509;28;20024;-76
2023/08/21 13:23:47;;;;;;;;;;;;;;;23.78;92.42;102311.13;4998166;28;19932;-78
2023/08/21 13:26:33;;;;;;;;;;;;;;;23.77;90.00;102314.81;5010187;28;19976;-78
2023/08/21 13:29:18;;;;;;;;;;;;;;;23.86;90.84;102312.25;4994372;28;20023;-76
2023/08/21 13:32:06;;;;;;;;;;;;;;;23.99;90.51;102304.03;5001505;28;19968;-76
2023/08/21 13:34:52;;;;;;;;;;;;;;;24.07;88.37;102311.56;4999895;28;19939;-76
2023/08/21 13:37:38;;;;;;;;;;;;;;;24.04;86.59;102308.19;5000743;28;20064;-76
2023/08/21 13:40:24;;;;;;;;;;;;;;;24.01;86.33;102307.47;5003243;28;19925;-76
2023/08/21 13:43:12;;;;;;;;;;;;;;;24.02;84.72;102308.31;5007203;28;20336;-76
2023/08/21 13:46:05;;;;;;;;;;;;;;;23.94;85.98;102303.53;5006669;28;20351;-76
2023/08/21 13:48:50;;;;;;;;;;;;;;;23.87;85.82;102300.44;5003737;28;19929;-79
2023/08/21 13:51:36;;;;;;;;;;;;;;;23.93;84.01;102300.94;5006714;28;19929;-80
2023/08/21 13:54:22;;;;;;;;;;;;;;;24.00;86.30;102311.16;5006585;28;19983;-78
2023/08/21 13:57:07;;;;;;;;;;;;;;;24.10;83.00;102299.63;5012915;28;20316;-80
2023/08/21 13:59:53;;;;;;;;;;;;;;;24.13;80.81;102296.69;5002725;28;20373;-79
2023/08/21 14:02:40;;;;;;;;;;;;;;;24.19;81.80;102296.16;4987873;28;20345;-82
2023/08/21 14:05:27;;;;;;;;;;;;;;;24.19;78.74;102304.28;5004783;28;19925;-79
2023/08/21 14:08:13;;;;;;;;;;;;;;;24.21;79.46;102310.44;5003851;28;19929;-79